Fallon, Montana
Current Conditions -  °F | °C
As of 1:35 AM on Sunday 26 Oct 2014 (Local Time) from KGDV Reporting Station
Clear Clear  
Wind Chill: 52°   Ceiling: Unl
Heat Index: 52°   Visibility: 10mi
Dew Point: 34°   Wind: 6mph
Humidity: 50%   Direction: 140°SE
Pressure: 29.6"   Gusts: NA
Location:  46.83°N, 105.13°W
Report Text: KGDV 260735Z AUTO 14005KT 10SM CLR 11/01 A2960 RMK AO1
Loading
Personal Weather Stations






























Interactive Weather Map New forecast layout! Learn more

10-Day Weather Forecast

Advertisements
Track Severe Weather on mobile